Time;durP1;ratioP1;P1;durP2;ratioP2;P2;SDS_P1;SDS_P2;PMS_P1;PMS_P2;Temp;Humidity;BMP_temperature;BMP_pressure;BME280_temperature;BME280_humidity;BME280_pressure;Samples;Min_cycle;Max_cycle;Signal;HPM_P1;HPM_P2
2024/01/29 00:01:35;;;;;;;16.13;11.32;;;19.20;67.60;;;;;;5018050;28;20679;-82
2024/01/29 00:04:00;;;;;;;14.70;11.05;;;19.20;66.90;;;;;;5026161;28;20100;-81
2024/01/29 00:06:26;;;;;;;14.77;11.32;;;19.20;66.90;;;;;;4989874;28;20037;-82
2024/01/29 00:08:52;;;;;;;13.30;10.10;;;19.20;66.90;;;;;;5021855;28;20018;-81
2024/01/29 00:11:18;;;;;;;17.00;11.85;;;19.20;66.90;;;;;;5004905;28;20116;-81
2024/01/29 00:13:46;;;;;;;13.95;10.38;;;19.20;67.00;;;;;;5021884;28;20034;-82
2024/01/29 00:16:14;;;;;;;13.65;10.52;;;19.10;67.00;;;;;;4991685;28;20053;-81
2024/01/29 00:18:39;;;;;;;14.02;10.27;;;19.10;67.10;;;;;;5008480;28;20025;-82
2024/01/29 00:21:05;;;;;;;13.45;9.65;;;19.10;67.10;;;;;;5022780;28;20021;-82
2024/01/29 00:23:30;;;;;;;13.85;10.00;;;19.10;67.10;;;;;;5023081;28;20108;-81
2024/01/29 00:25:56;;;;;;;13.27;9.40;;;19.00;67.10;;;;;;5016217;28;20026;-82
2024/01/29 00:28:22;;;;;;;12.77;9.68;;;19.00;67.10;;;;;;5006461;28;20022;-81
2024/01/29 00:30:47;;;;;;;11.55;8.80;;;19.00;67.20;;;;;;5019957;28;20080;-81
2024/01/29 00:33:13;;;;;;;11.82;9.30;;;19.00;67.20;;;;;;5021959;28;20025;-81
2024/01/29 00:35:39;;;;;;;13.07;9.75;;;19.00;67.30;;;;;;5022751;28;20090;-81
2024/01/29 00:38:05;;;;;;;12.57;10.38;;;19.00;67.30;;;;;;5018517;28;20033;-81
2024/01/29 00:40:32;;;;;;;13.40;9.55;;;18.90;67.40;;;;;;5005462;28;20404;-81
2024/01/29 00:43:01;;;;;;;10.55;8.88;;;18.90;67.40;;;;;;5040039;28;20053;-82
2024/01/29 00:45:27;;;;;;;13.65;10.02;;;18.90;67.50;;;;;;5005938;28;20034;-82
2024/01/29 00:47:52;;;;;;;12.18;9.52;;;18.90;67.60;;;;;;5021168;28;20025;-81
2024/01/29 00:50:18;;;;;;;10.15;8.27;;;18.80;67.60;;;;;;5023298;28;20030;-81
2024/01/29 00:52:43;;;;;;;10.07;8.57;;;18.90;67.60;;;;;;5021634;28;20500;-81
2024/01/29 00:55:09;;;;;;;10.02;8.95;;;18.80;67.50;;;;;;5027395;28;20036;-81
2024/01/29 00:57:34;;;;;;;10.60;8.35;;;18.80;67.60;;;;;;5024925;28;20057;-81
2024/01/29 01:00:00;;;;;;;10.30;8.45;;;18.80;67.60;;;;;;5024989;28;20189;-81
2024/01/29 01:02:25;;;;;;;9.88;8.20;;;18.80;67.70;;;;;;5026923;28;20033;-81
2024/01/29 01:04:51;;;;;;;10.93;8.52;;;18.80;67.60;;;;;;5025876;28;20032;-81
2024/01/29 01:07:17;;;;;;;9.63;7.55;;;18.70;67.60;;;;;;5010233;28;20017;-82
2024/01/29 01:09:42;;;;;;;8.20;7.40;;;18.70;67.70;;;;;;5007752;28;20029;-81
2024/01/29 01:12:08;;;;;;;8.15;7.30;;;18.70;68.40;;;;;;5009325;28;20037;-80
2024/01/29 01:14:33;;;;;;;8.25;7.32;;;18.70;67.70;;;;;;5010733;28;20112;-81
2024/01/29 01:16:59;;;;;;;10.70;7.97;;;18.70;67.70;;;;;;5009632;28;20526;-81
2024/01/29 01:19:24;;;;;;;9.65;8.07;;;18.70;67.80;;;;;;5009923;28;20446;-82
2024/01/29 01:21:50;;;;;;;9.55;7.70;;;18.60;67.70;;;;;;5027362;28;20033;-82
2024/01/29 01:24:16;;;;;;;8.40;7.25;;;18.60;67.80;;;;;;5025438;28;20048;-82
2024/01/29 01:26:41;;;;;;;8.20;7.40;;;18.60;67.80;;;;;;5023828;28;20033;-81
2024/01/29 01:29:07;;;;;;;8.85;8.00;;;18.60;67.90;;;;;;5027550;28;20407;-80
2024/01/29 01:31:32;;;;;;;9.00;7.65;;;18.60;67.70;;;;;;5025192;28;20030;-80
2024/01/29 01:33:58;;;;;;;8.07;7.28;;;18.60;67.90;;;;;;4995309;28;20482;-81
2024/01/29 01:36:23;;;;;;;9.10;8.18;;;18.50;67.80;;;;;;5025268;28;20022;-81
2024/01/29 01:38:49;;;;;;;8.45;7.55;;;18.50;67.80;;;;;;4993018;28;20034;-80
2024/01/29 01:41:14;;;;;;;7.50;6.82;;;18.50;67.80;;;;;;5020012;28;20072;-80
2024/01/29 01:43:40;;;;;;;7.88;7.07;;;18.50;67.70;;;;;;5007707;28;20520;-80
2024/01/29 01:46:06;;;;;;;7.00;6.40;;;18.50;67.80;;;;;;5026868;28;20087;-80
2024/01/29 01:48:34;;;;;;;9.73;7.00;;;18.50;67.80;;;;;;5024968;28;20025;-80
2024/01/29 01:51:00;;;;;;;7.25;6.03;;;18.50;67.90;;;;;;5009004;28;20056;-81
2024/01/29 01:53:26;;;;;;;7.60;6.43;;;18.40;67.90;;;;;;4994437;28;20056;-81
2024/01/29 01:55:52;;;;;;;8.02;6.55;;;18.50;67.80;;;;;;5005775;28;20042;-81
2024/01/29 01:58:18;;;;;;;7.85;6.60;;;18.40;67.80;;;;;;4993410;28;20095;-81
2024/01/29 02:00:44;;;;;;;7.50;6.80;;;18.40;67.70;;;;;;5021634;28;20453;-81
2024/01/29 02:03:09;;;;;;;7.53;6.57;;;18.40;67.80;;;;;;5024646;28;20032;-81
2024/01/29 02:05:36;;;;;;;7.38;6.22;;;18.40;67.80;;;;;;5022385;28;20503;-82
2024/01/29 02:08:01;;;;;;;6.90;6.22;;;18.40;67.90;;;;;;5004495;28;20457;-81
2024/01/29 02:10:27;;;;;;;6.57;5.93;;;18.40;67.90;;;;;;5007129;28;20483;-82
2024/01/29 02:12:53;;;;;;;6.70;5.97;;;18.40;67.90;;;;;;5010029;28;20033;-81
2024/01/29 02:15:19;;;;;;;7.40;6.60;;;18.40;67.80;;;;;;5023709;28;20056;-81
2024/01/29 02:17:44;;;;;;;6.78;5.55;;;18.40;67.80;;;;;;4990867;28;20115;-81
2024/01/29 02:20:10;;;;;;;6.43;5.63;;;18.40;67.80;;;;;;5023614;28;20663;-81
2024/01/29 02:22:43;;;;;;;6.70;5.97;;;18.30;67.70;;;;;;5006683;28;20463;-81
2024/01/29 02:25:09;;;;;;;6.25;5.65;;;18.30;67.70;;;;;;5024016;28;20418;-81
2024/01/29 02:27:34;;;;;;;6.00;5.47;;;18.30;67.70;;;;;;5023985;28;20551;-81
2024/01/29 02:30:00;;;;;;;6.28;5.68;;;18.30;67.60;;;;;;5006949;28;20096;-82
2024/01/29 02:32:26;;;;;;;6.00;5.43;;;18.30;67.60;;;;;;5024120;28;20446;-81
2024/01/29 02:34:52;;;;;;;6.72;6.07;;;18.30;68.50;;;;;;5006465;28;20037;-81
2024/01/29 02:37:17;;;;;;;6.07;5.57;;;18.30;67.60;;;;;;5011774;28;20037;-81
2024/01/29 02:39:43;;;;;;;6.50;5.80;;;18.30;67.60;;;;;;4992446;28;20076;-81
2024/01/29 02:42:09;;;;;;;6.13;5.53;;;18.30;67.60;;;;;;5021541;28;20038;-81
2024/01/29 02:44:34;;;;;;;6.82;5.50;;;18.30;68.30;;;;;;5021937;28;20053;-81
2024/01/29 02:47:00;;;;;;;6.22;5.70;;;18.20;67.60;;;;;;5007171;28;20607;-81
2024/01/29 02:49:25;;;;;;;5.30;4.90;;;18.20;68.40;;;;;;5007587;28;20095;-81
2024/01/29 02:51:51;;;;;;;5.60;5.10;;;18.20;67.60;;;;;;4988446;28;20038;-81
2024/01/29 02:54:16;;;;;;;5.97;5.40;;;18.20;67.60;;;;;;5008472;28;20025;-81
2024/01/29 02:56:42;;;;;;;5.88;5.38;;;18.20;67.60;;;;;;4992465;28;20023;-80
2024/01/29 02:59:07;;;;;;;5.43;5.03;;;18.20;67.60;;;;;;5023476;28;20129;-80
2024/01/29 03:01:33;;;;;;;5.32;4.82;;;18.20;67.60;;;;;;5022424;28;20041;-82
2024/01/29 03:03:58;;;;;;;5.30;4.75;;;18.20;67.60;;;;;;5008845;28;20394;-81
2024/01/29 03:06:25;;;;;;;6.32;5.82;;;18.20;67.60;;;;;;5024781;28;20125;-82
2024/01/29 03:08:50;;;;;;;5.65;5.20;;;18.20;67.60;;;;;;5022155;28;20036;-80
2024/01/29 03:11:16;;;;;;;5.65;5.15;;;18.20;67.60;;;;;;5008697;28;20039;-82
2024/01/29 03:13:41;;;;;;;6.07;5.57;;;18.20;68.40;;;;;;5008100;28;20114;-82
2024/01/29 03:16:07;;;;;;;6.03;5.45;;;18.20;68.50;;;;;;5024110;28;20026;-82
2024/01/29 03:18:32;;;;;;;5.53;5.03;;;18.10;67.70;;;;;;5008701;28;20509;-82
2024/01/29 03:20:59;;;;;;;5.15;4.75;;;18.10;67.60;;;;;;5025016;28;20383;-81
2024/01/29 03:23:24;;;;;;;5.35;4.95;;;18.10;67.70;;;;;;5022568;28;20025;-81
2024/01/29 03:25:50;;;;;;;5.15;4.75;;;18.10;67.70;;;;;;5022556;28;20075;-81
2024/01/29 03:28:15;;;;;;;5.38;4.97;;;18.10;67.70;;;;;;5010225;28;20032;-82
2024/01/29 03:30:41;;;;;;;5.25;4.85;;;18.10;67.70;;;;;;5022971;28;20025;-82
2024/01/29 03:33:06;;;;;;;4.68;4.32;;;18.10;67.70;;;;;;5024813;28;20101;-82
2024/01/29 03:35:32;;;;;;;4.50;4.10;;;18.10;67.70;;;;;;5022754;28;20518;-82
2024/01/29 03:37:57;;;;;;;5.00;4.60;;;18.10;67.80;;;;;;5021683;28;20141;-81
2024/01/29 03:40:23;;;;;;;4.93;4.53;;;18.00;67.70;;;;;;5024076;28;20522;-81
2024/01/29 03:42:48;;;;;;;4.90;4.60;;;18.00;67.70;;;;;;5021418;28;20040;-81
2024/01/29 03:45:14;;;;;;;4.95;4.55;;;18.00;67.80;;;;;;5023829;28;20030;-81
2024/01/29 03:47:40;;;;;;;4.93;4.57;;;18.00;67.80;;;;;;5007604;28;20064;-82
2024/01/29 03:50:06;;;;;;;5.60;5.20;;;18.00;67.80;;;;;;5008127;28;20048;-80
2024/01/29 03:52:31;;;;;;;4.60;4.30;;;18.00;67.80;;;;;;5008664;28;20037;-82
2024/01/29 03:54:57;;;;;;;5.32;4.18;;;18.00;67.80;;;;;;4992309;28;20039;-82
2024/01/29 03:57:22;;;;;;;4.75;4.35;;;18.00;67.80;;;;;;5005396;28;20056;-82
2024/01/29 03:59:48;;;;;;;4.78;4.38;;;18.00;67.80;;;;;;5006854;28;20415;-83
2024/01/29 04:02:13;;;;;;;4.75;4.38;;;18.00;67.90;;;;;;5005281;28;20045;-83
2024/01/29 04:04:39;;;;;;;4.72;4.32;;;17.90;67.90;;;;;;4990265;28;20113;-81
2024/01/29 04:07:04;;;;;;;4.63;4.22;;;17.90;67.80;;;;;;5024715;28;20033;-80
2024/01/29 04:09:30;;;;;;;4.80;4.40;;;18.00;67.80;;;;;;5006256;28;20597;-80
2024/01/29 04:11:56;;;;;;;4.38;3.97;;;17.90;67.80;;;;;;5021658;28;20104;-80
2024/01/29 04:14:22;;;;;;;4.35;4.05;;;17.90;67.80;;;;;;5022528;28;20022;-81
2024/01/29 04:16:47;;;;;;;4.35;4.05;;;18.00;68.00;;;;;;5022523;28;20030;-82
2024/01/29 04:19:13;;;;;;;4.70;4.30;;;17.90;67.90;;;;;;5009247;28;20025;-81
2024/01/29 04:21:42;;;;;;;4.10;3.80;;;17.90;67.90;;;;;;5024241;28;20033;-81
2024/01/29 04:24:12;;;;;;;4.25;3.97;;;17.90;67.90;;;;;;5020255;28;20025;-81
2024/01/29 04:26:40;;;;;;;4.63;4.22;;;17.90;67.90;;;;;;5019465;28;20022;-80
2024/01/29 04:29:05;;;;;;;4.40;4.10;;;17.90;67.90;;;;;;5009532;28;20026;-81
2024/01/29 04:31:31;;;;;;;4.70;4.32;;;17.90;68.00;;;;;;5027287;28;20091;-81
2024/01/29 04:33:57;;;;;;;4.18;3.88;;;17.90;68.00;;;;;;5027078;28;20040;-81
2024/01/29 04:36:22;;;;;;;4.38;4.07;;;17.90;68.00;;;;;;5011271;28;20022;-81
2024/01/29 04:38:49;;;;;;;4.07;3.78;;;17.90;68.00;;;;;;5027436;28;20056;-81
2024/01/29 04:41:21;;;;;;;4.38;4.07;;;17.80;67.90;;;;;;5024468;28;20103;-81
2024/01/29 04:43:47;;;;;;;3.70;3.40;;;17.90;68.00;;;;;;5026237;28;20030;-81
2024/01/29 04:46:12;;;;;;;4.30;4.00;;;17.80;68.00;;;;;;5027226;28;20384;-81
2024/01/29 04:48:39;;;;;;;3.42;3.22;;;17.90;68.00;;;;;;5010058;28;20033;-82
2024/01/29 04:51:06;;;;;;;4.30;3.90;;;17.80;67.90;;;;;;5026980;28;20032;-82
2024/01/29 04:53:31;;;;;;;4.78;4.47;;;17.80;68.00;;;;;;5026280;28;20129;-81
2024/01/29 04:55:57;;;;;;;4.45;4.15;;;17.80;67.90;;;;;;5010041;28;20030;-81
2024/01/29 04:58:22;;;;;;;3.90;3.60;;;17.80;67.90;;;;;;4994736;28;20677;-81
2024/01/29 05:00:48;;;;;;;3.60;3.40;;;17.80;67.90;;;;;;5005638;28;20394;-81
2024/01/29 05:03:13;;;;;;;3.88;3.58;;;17.80;68.00;;;;;;5009286;28;20030;-81
2024/01/29 05:05:39;;;;;;;4.43;4.13;;;17.80;68.00;;;;;;5010499;28;20117;-80
2024/01/29 05:08:05;;;;;;;3.97;3.60;;;17.80;68.80;;;;;;5006741;28;20018;-79
2024/01/29 05:10:30;;;;;;;3.65;3.45;;;17.80;68.10;;;;;;5008300;28;20075;-80
2024/01/29 05:12:56;;;;;;;3.67;3.47;;;17.80;68.10;;;;;;4996675;28;20053;-81
2024/01/29 05:15:22;;;;;;;3.80;3.53;;;17.80;68.20;;;;;;5026352;28;20030;-79
2024/01/29 05:17:47;;;;;;;3.55;3.35;;;17.80;68.00;;;;;;5022430;28;20713;-80
2024/01/29 05:20:13;;;;;;;3.65;3.45;;;17.80;68.10;;;;;;5010379;28;20109;-80
2024/01/29 05:22:40;;;;;;;4.03;3.67;;;17.80;68.00;;;;;;5010783;28;20049;-79
2024/01/29 05:25:05;;;;;;;4.05;3.70;;;17.80;68.00;;;;;;4993978;28;20563;-80
2024/01/29 05:27:31;;;;;;;3.50;3.30;;;17.80;68.00;;;;;;5025041;28;20087;-80
2024/01/29 05:29:56;;;;;;;3.30;3.10;;;17.70;68.00;;;;;;4994728;28;20040;-79
2024/01/29 05:32:22;;;;;;;3.17;2.95;;;17.80;68.00;;;;;;4993505;28;20116;-80
2024/01/29 05:34:48;;;;;;;3.20;3.00;;;17.70;68.00;;;;;;5007560;28;20034;-80
2024/01/29 05:37:13;;;;;;;3.65;3.45;;;17.80;68.80;;;;;;5008639;28;20021;-80
2024/01/29 05:39:39;;;;;;;3.42;3.20;;;17.70;68.00;;;;;;5007871;28;20094;-80
2024/01/29 05:42:04;;;;;;;3.20;3.00;;;17.70;68.00;;;;;;5025270;28;20112;-80
2024/01/29 05:44:30;;;;;;;3.30;3.08;;;17.70;68.00;;;;;;5005685;28;20030;-79
2024/01/29 05:46:56;;;;;;;3.30;3.10;;;17.70;68.00;;;;;;5006968;28;20021;-79
2024/01/29 05:49:22;;;;;;;3.35;3.10;;;17.70;68.00;;;;;;5009831;28;20112;-80
2024/01/29 05:51:48;;;;;;;3.13;2.92;;;17.70;68.00;;;;;;5025761;28;20029;-82
2024/01/29 05:54:13;;;;;;;3.08;2.92;;;17.70;68.10;;;;;;5026822;28;20088;-82
2024/01/29 05:56:44;;;;;;;3.47;3.28;;;17.70;67.90;;;;;;4992727;28;20033;-80
2024/01/29 05:59:10;;;;;;;3.08;2.88;;;17.70;68.00;;;;;;5006836;28;20041;-80
2024/01/29 06:01:35;;;;;;;3.38;3.15;;;17.70;67.90;;;;;;5025840;28;20037;-79
2024/01/29 06:04:01;;;;;;;2.88;2.70;;;17.70;68.00;;;;;;5010957;28;20029;-81
2024/01/29 06:06:27;;;;;;;3.22;3.03;;;17.70;68.10;;;;;;5023789;28;20021;-78
2024/01/29 06:08:53;;;;;;;3.47;3.22;;;17.70;68.40;;;;;;5024780;28;20025;-80
2024/01/29 06:11:19;;;;;;;4.53;3.30;;;17.70;68.70;;;;;;5023256;28;20032;-80
2024/01/29 06:13:45;;;;;;;5.90;3.03;;;17.70;68.60;;;;;;5009500;28;20029;-80
2024/01/29 06:16:11;;;;;;;4.32;3.67;;;17.70;68.60;;;;;;5010743;28;20022;-79
2024/01/29 06:18:37;;;;;;;4.35;3.20;;;17.70;69.60;;;;;;5007421;28;20025;-80
2024/01/29 06:21:03;;;;;;;3.72;3.28;;;17.70;69.20;;;;;;5025428;28;20026;-82
2024/01/29 06:23:28;;;;;;;3.38;3.17;;;17.80;70.90;;;;;;4992123;28;20400;-82
2024/01/29 06:25:54;;;;;;;3.20;2.85;;;17.80;72.00;;;;;;5009831;28;20025;-81
2024/01/29 06:28:20;;;;;;;3.85;3.13;;;17.80;72.10;;;;;;5007333;28;20029;-81
2024/01/29 06:30:45;;;;;;;3.38;3.08;;;17.70;72.50;;;;;;5023383;28;20063;-82
2024/01/29 06:33:11;;;;;;;3.45;3.25;;;17.80;72.40;;;;;;5024817;28;20021;-82
2024/01/29 06:35:37;;;;;;;3.35;2.75;;;17.80;73.30;;;;;;5008253;28;20120;-82
2024/01/29 06:38:03;;;;;;;3.15;2.90;;;17.70;74.20;;;;;;5023743;28;20021;-83
2024/01/29 06:40:29;;;;;;;3.65;2.45;;;17.80;73.80;;;;;;5023254;28;20049;-80
2024/01/29 06:42:55;;;;;;;3.05;2.85;;;17.80;74.00;;;;;;5025302;28;20037;-82
2024/01/29 06:45:21;;;;;;;4.00;3.00;;;17.70;73.50;;;;;;5005650;28;20065;-82
2024/01/29 06:47:47;;;;;;;4.65;3.05;;;17.70;73.30;;;;;;5005975;28;20057;-84
2024/01/29 06:50:12;;;;;;;4.85;2.80;;;17.70;73.20;;;;;;5008236;28;20092;-87
2024/01/29 06:52:38;;;;;;;3.10;2.80;;;17.70;74.20;;;;;;5022788;28;20579;-80
2024/01/29 06:55:04;;;;;;;4.38;2.40;;;17.70;73.60;;;;;;5027294;28;20052;-83
2024/01/29 06:57:29;;;;;;;2.95;2.72;;;17.60;73.40;;;;;;5023108;28;20061;-82
2024/01/29 06:59:55;;;;;;;4.28;2.80;;;17.60;73.60;;;;;;5021827;28;20029;-82
2024/01/29 07:02:21;;;;;;;2.75;2.63;;;17.60;73.60;;;;;;5024907;28;20498;-82
2024/01/29 07:04:47;;;;;;;4.85;3.17;;;17.60;73.80;;;;;;5023831;28;20572;-82
2024/01/29 07:07:13;;;;;;;3.50;2.70;;;17.60;74.00;;;;;;5025669;28;20022;-81
2024/01/29 07:09:40;;;;;;;3.42;2.50;;;17.60;74.10;;;;;;5020421;28;20037;-82
2024/01/29 07:12:06;;;;;;;3.00;2.72;;;17.60;74.10;;;;;;5022924;28;20026;-80
2024/01/29 07:14:31;;;;;;;4.93;3.00;;;17.60;74.20;;;;;;5023328;28;20028;-80
2024/01/29 07:16:57;;;;;;;5.88;2.70;;;17.60;74.20;;;;;;5025497;28;20041;-83
2024/01/29 07:19:25;;;;;;;2.75;2.55;;;17.60;74.30;;;;;;5023854;28;20026;-81
2024/01/29 07:21:51;;;;;;;2.83;2.63;;;17.50;74.30;;;;;;5022607;28;20037;-79
2024/01/29 07:24:17;;;;;;;4.32;2.67;;;17.50;75.00;;;;;;5021480;28;20033;-77
2024/01/29 07:26:42;;;;;;;2.80;2.60;;;17.50;74.80;;;;;;5005952;28;20063;-79
2024/01/29 07:29:08;;;;;;;3.00;2.80;;;17.60;75.00;;;;;;5007612;28;20030;-79
2024/01/29 07:31:34;;;;;;;2.50;2.40;;;17.60;74.60;;;;;;5022555;28;20159;-80
2024/01/29 07:34:00;;;;;;;2.67;2.58;;;17.60;74.60;;;;;;5026592;28;20100;-78
2024/01/29 07:36:27;;;;;;;2.53;2.33;;;17.60;74.60;;;;;;4992012;28;20113;-79
2024/01/29 07:38:53;;;;;;;3.28;2.95;;;17.60;74.60;;;;;;5008057;28;20445;-81
2024/01/29 07:41:19;;;;;;;4.13;2.53;;;17.60;74.50;;;;;;5007059;28;20049;-80
2024/01/29 07:43:44;;;;;;;2.55;2.35;;;17.60;74.40;;;;;;4988363;28;20022;-78
2024/01/29 07:46:10;;;;;;;3.20;2.25;;;17.60;74.40;;;;;;5012189;28;20049;-80
2024/01/29 07:48:36;;;;;;;2.28;2.17;;;17.60;74.40;;;;;;5023498;28;20021;-80
2024/01/29 07:51:01;;;;;;;2.42;2.22;;;17.60;74.10;;;;;;4991127;28;20032;-80
2024/01/29 07:53:27;;;;;;;3.85;2.10;;;17.60;74.20;;;;;;5005934;28;20037;-80
2024/01/29 07:55:52;;;;;;;2.35;2.20;;;17.60;74.20;;;;;;5007934;28;20108;-80
2024/01/29 07:58:18;;;;;;;2.60;2.40;;;17.60;74.20;;;;;;5010807;28;20037;-81
2024/01/29 08:00:45;;;;;;;2.53;2.42;;;17.60;74.30;;;;;;5023000;28;20030;-80
2024/01/29 08:03:11;;;;;;;2.45;2.30;;;17.50;74.40;;;;;;5025522;28;20495;-81
2024/01/29 08:05:37;;;;;;;2.45;2.33;;;17.50;74.40;;;;;;5008216;28;20029;-81
2024/01/29 08:08:03;;;;;;;4.57;2.20;;;17.50;74.40;;;;;;5007221;28;20030;-80
2024/01/29 08:10:28;;;;;;;2.05;1.95;;;17.50;74.50;;;;;;5026117;28;20454;-80
2024/01/29 08:12:54;;;;;;;2.42;2.17;;;17.50;74.70;;;;;;5012931;28;20041;-81
2024/01/29 08:15:21;;;;;;;2.10;2.00;;;17.50;74.70;;;;;;5011595;28;20112;-81
2024/01/29 08:17:46;;;;;;;2.22;2.00;;;17.50;74.70;;;;;;5011266;28;20021;-81
2024/01/29 08:20:12;;;;;;;2.47;2.38;;;17.50;74.70;;;;;;5010954;28;20029;-81
2024/01/29 08:22:37;;;;;;;2.22;2.13;;;17.50;74.80;;;;;;5027440;28;20037;-81
2024/01/29 08:25:03;;;;;;;2.03;1.92;;;17.50;74.90;;;;;;5027775;28;20407;-81
2024/01/29 08:27:31;;;;;;;2.30;2.10;;;17.50;74.80;;;;;;5027011;28;20030;-81
2024/01/29 08:29:57;;;;;;;1.90;1.80;;;17.40;74.80;;;;;;5010988;28;20098;-81
2024/01/29 08:32:23;;;;;;;2.20;2.10;;;17.50;75.00;;;;;;5010594;28;20119;-81
2024/01/29 08:34:49;;;;;;;1.88;1.77;;;17.50;75.00;;;;;;5025215;28;20108;-81
2024/01/29 08:37:15;;;;;;;2.70;2.28;;;17.40;75.00;;;;;;5044031;28;20120;-81
2024/01/29 08:39:40;;;;;;;2.90;2.30;;;17.50;75.10;;;;;;5024768;28;20427;-81
2024/01/29 08:42:06;;;;;;;2.22;2.03;;;17.40;75.00;;;;;;5027089;28;20061;-81
2024/01/29 08:44:32;;;;;;;2.42;2.22;;;17.50;75.20;;;;;;5024567;28;20025;-81
2024/01/29 08:46:57;;;;;;;1.95;1.85;;;17.40;75.80;;;;;;5026625;28;20091;-81
2024/01/29 08:49:23;;;;;;;2.00;1.90;;;17.50;75.20;;;;;;5028606;28;20041;-82
2024/01/29 08:51:48;;;;;;;2.30;2.15;;;17.40;75.20;;;;;;4995962;28;20028;-81
2024/01/29 08:54:14;;;;;;;2.00;1.90;;;17.40;75.20;;;;;;5026094;28;20033;-81
2024/01/29 08:56:41;;;;;;;2.42;2.08;;;17.40;75.30;;;;;;5009138;28;20437;-81
2024/01/29 08:59:07;;;;;;;3.38;1.90;;;17.40;75.30;;;;;;5010248;28;20506;-81
2024/01/29 09:01:33;;;;;;;2.00;1.90;;;17.40;75.30;;;;;;5009920;28;20084;-81
2024/01/29 09:03:58;;;;;;;2.22;2.08;;;17.40;76.10;;;;;;5043028;28;20021;-81
2024/01/29 09:06:24;;;;;;;2.15;1.98;;;17.40;75.30;;;;;;5038409;28;20430;-81
2024/01/29 09:08:50;;;;;;;2.05;1.95;;;17.40;75.40;;;;;;5009260;28;20022;-82
2024/01/29 09:11:16;;;;;;;1.90;1.80;;;17.40;75.40;;;;;;4995060;28;20053;-82
2024/01/29 09:13:41;;;;;;;2.05;1.95;;;17.40;76.10;;;;;;5009020;28;20044;-81
2024/01/29 09:16:08;;;;;;;1.73;1.63;;;17.40;75.30;;;;;;5027709;28;20033;-81
2024/01/29 09:18:34;;;;;;;1.80;1.70;;;17.40;75.20;;;;;;5024868;28;20491;-82
2024/01/29 09:20:59;;;;;;;1.77;1.67;;;17.40;75.20;;;;;;4993552;28;20029;-80
2024/01/29 09:23:25;;;;;;;1.73;1.63;;;17.40;75.30;;;;;;5023998;28;20033;-80
2024/01/29 09:25:50;;;;;;;2.05;1.95;;;17.40;75.20;;;;;;5026317;28;20068;-79
2024/01/29 09:28:17;;;;;;;2.10;1.55;;;17.40;75.20;;;;;;5027150;28;20028;-80
2024/01/29 09:30:42;;;;;;;2.00;1.90;;;17.40;75.40;;;;;;5028058;28;20570;-80
2024/01/29 09:33:08;;;;;;;1.88;1.77;;;17.40;75.30;;;;;;5024232;28;20415;-80
2024/01/29 09:35:33;;;;;;;1.90;1.80;;;17.40;75.20;;;;;;5010672;28;20052;-81
2024/01/29 09:37:59;;;;;;;1.60;1.50;;;17.50;76.10;;;;;;5024093;28;20030;-81
2024/01/29 09:40:24;;;;;;;2.05;1.95;;;17.50;75.30;;;;;;5024831;28;20518;-83
2024/01/29 09:42:50;;;;;;;2.42;1.90;;;17.50;75.30;;;;;;5010264;28;20450;-81
2024/01/29 09:45:20;;;;;;;1.90;1.80;;;17.50;75.20;;;;;;5010189;28;20025;-81
2024/01/29 09:47:46;;;;;;;1.77;1.67;;;17.50;75.30;;;;;;5009595;28;20049;-81
2024/01/29 09:50:11;;;;;;;1.90;1.80;;;17.50;75.30;;;;;;4993625;28;20068;-79
2024/01/29 09:52:37;;;;;;;1.80;1.70;;;17.50;76.30;;;;;;5008494;28;20033;-79
2024/01/29 09:55:04;;;;;;;2.10;1.67;;;17.60;76.20;;;;;;5026736;28;20083;-80
2024/01/29 09:57:30;;;;;;;1.77;1.67;;;17.60;76.80;;;;;;5009013;28;20037;-80
2024/01/29 09:59:55;;;;;;;2.90;1.67;;;17.60;77.30;;;;;;4993283;28;20025;-81
2024/01/29 10:02:21;;;;;;;2.25;2.03;;;17.60;77.10;;;;;;5010006;28;20033;-81
2024/01/29 10:04:46;;;;;;;1.70;1.60;;;17.70;77.40;;;;;;5006813;28;20022;-81
2024/01/29 10:07:12;;;;;;;2.53;1.65;;;17.70;77.00;;;;;;5012065;28;20026;-80
2024/01/29 10:09:37;;;;;;;1.70;1.60;;;17.60;77.00;;;;;;5009338;28;20079;-80
2024/01/29 10:12:04;;;;;;;4.25;1.60;;;17.60;77.30;;;;;;5009299;28;20079;-81
2024/01/29 10:14:30;;;;;;;2.08;1.98;;;17.60;77.40;;;;;;5010156;28;20036;-81
2024/01/29 10:16:56;;;;;;;3.78;1.70;;;17.60;77.60;;;;;;5022431;28;20022;-81
2024/01/29 10:19:21;;;;;;;1.92;1.77;;;17.60;78.30;;;;;;5027698;28;20575;-80
2024/01/29 10:21:47;;;;;;;1.60;1.50;;;17.70;77.60;;;;;;5041922;28;20396;-80
2024/01/29 10:24:14;;;;;;;1.60;1.50;;;17.60;77.60;;;;;;5023844;28;20483;-80
2024/01/29 10:26:40;;;;;;;2.08;1.50;;;17.70;77.70;;;;;;4670929;28;10000396;-81
2024/01/29 10:29:07;;;;;;;4.15;1.73;;;17.70;77.90;;;;;;4658274;28;10000046;-80
2024/01/29 10:31:32;;;;;;;1.67;1.55;;;17.70;77.40;;;;;;5021534;28;20088;-80
2024/01/29 10:33:59;;;;;;;1.92;1.70;;;17.80;77.40;;;;;;5003372;28;20014;-80
2024/01/29 10:36:24;;;;;;;1.75;1.65;;;17.70;77.20;;;;;;5005972;28;20033;-80
2024/01/29 10:38:51;;;;;;;2.30;1.40;;;17.80;77.20;;;;;;5019298;28;20538;-80
2024/01/29 10:41:17;;;;;;;1.77;1.67;;;17.80;77.10;;;;;;5001213;28;20041;-80
2024/01/29 10:43:47;;;;;;;1.88;1.77;;;17.80;76.90;;;;;;5005404;28;20030;-80
2024/01/29 10:46:13;;;;;;;1.95;1.65;;;17.80;76.90;;;;;;5006447;28;20057;-80
2024/01/29 10:48:38;;;;;;;2.22;1.77;;;17.80;76.90;;;;;;5003610;28;20407;-80
2024/01/29 10:51:04;;;;;;;1.70;1.60;;;17.80;76.70;;;;;;5003498;28;20032;-80
2024/01/29 10:53:29;;;;;;;2.53;1.65;;;17.80;76.60;;;;;;4988440;28;20120;-80
2024/01/29 10:55:56;;;;;;;1.55;1.38;;;17.80;76.60;;;;;;5005294;28;20030;-80
2024/01/29 10:58:22;;;;;;;1.50;1.40;;;17.80;76.70;;;;;;5022152;28;20033;-81
2024/01/29 11:00:47;;;;;;;2.15;1.92;;;17.80;76.60;;;;;;5020602;28;20037;-80
2024/01/29 11:03:13;;;;;;;2.53;1.77;;;17.80;77.40;;;;;;5017399;28;20033;-81
2024/01/29 11:05:40;;;;;;;2.70;1.88;;;17.80;76.30;;;;;;5002085;28;20565;-81
2024/01/29 11:08:08;;;;;;;1.50;1.40;;;17.90;76.20;;;;;;4988520;28;20437;-80
2024/01/29 11:10:34;;;;;;;2.22;1.73;;;17.90;75.70;;;;;;5020771;28;20018;-81
2024/01/29 11:12:59;;;;;;;1.50;1.38;;;18.00;75.10;;;;;;4987507;28;20464;-80
2024/01/29 11:15:25;;;;;;;2.30;2.20;;;18.00;74.60;;;;;;5001435;28;20040;-80
2024/01/29 11:17:50;;;;;;;3.33;2.30;;;18.00;74.30;;;;;;5018297;28;20503;-80
2024/01/29 11:20:17;;;;;;;5.18;2.92;;;18.00;74.00;;;;;;5019273;28;20021;-80
2024/01/29 11:22:56;;;;;;;6.25;4.38;;;18.10;73.80;;;;;;5004317;28;20120;-79
2024/01/29 11:25:22;;;;;;;6.07;3.67;;;18.10;73.10;;;;;;5022022;28;20026;-80
2024/01/29 11:27:49;;;;;;;3.83;3.03;;;18.10;73.20;;;;;;5020918;28;20025;-80
2024/01/29 11:30:18;;;;;;;3.13;2.60;;;18.00;73.10;;;;;;5020926;28;20025;-80
2024/01/29 11:32:46;;;;;;;4.68;2.97;;;18.00;73.90;;;;;;5018376;28;20087;-80
2024/01/29 11:35:13;;;;;;;2.67;2.47;;;18.00;74.90;;;;;;4988396;28;20072;-80
2024/01/29 11:37:39;;;;;;;2.05;1.95;;;18.00;75.00;;;;;;5019397;28;21037;-80
2024/01/29 11:40:25;;;;;;;2.05;1.88;;;18.10;75.50;;;;;;5000877;28;20042;-79
2024/01/29 11:42:51;;;;;;;7.50;3.63;;;18.10;75.50;;;;;;5007054;28;20068;-81
2024/01/29 11:45:17;;;;;;;5.13;4.70;;;18.10;76.90;;;;;;5018152;28;20049;-80
2024/01/29 11:47:42;;;;;;;3.42;3.08;;;18.20;77.10;;;;;;5018269;28;20033;-80
2024/01/29 11:50:09;;;;;;;2.47;2.28;;;18.20;76.40;;;;;;4988900;28;20025;-80
2024/01/29 11:52:34;;;;;;;2.88;2.67;;;18.20;76.70;;;;;;5020499;28;20044;-79
2024/01/29 11:55:00;;;;;;;2.40;2.20;;;18.20;78.40;;;;;;5021248;28;20092;-80
2024/01/29 11:57:27;;;;;;;2.88;2.67;;;18.20;77.40;;;;;;5003274;28;20022;-79
2024/01/29 11:59:52;;;;;;;3.22;3.00;;;18.30;76.50;;;;;;5003838;28;20032;-80
2024/01/29 12:02:18;;;;;;;19.52;10.80;;;18.20;75.70;;;;;;5003889;28;20034;-80
2024/01/29 12:04:43;;;;;;;25.52;15.25;;;18.30;75.20;;;;;;5019264;28;20029;-82
2024/01/29 12:07:09;;;;;;;49.95;32.75;;;18.30;74.30;;;;;;4991135;28;20025;-80
2024/01/29 12:09:35;;;;;;;33.67;23.27;;;18.30;73.90;;;;;;5000337;28;20037;-80
2024/01/29 12:12:01;;;;;;;21.77;15.48;;;18.20;73.60;;;;;;4988105;28;20510;-80
2024/01/29 12:14:26;;;;;;;19.85;14.10;;;18.20;72.50;;;;;;5016652;28;20105;-80
2024/01/29 12:16:52;;;;;;;17.23;11.20;;;18.30;72.70;;;;;;5015913;28;20542;-80
2024/01/29 12:19:17;;;;;;;13.75;9.80;;;18.20;73.60;;;;;;5020730;28;20394;-80
2024/01/29 12:21:43;;;;;;;11.65;8.35;;;18.30;74.30;;;;;;5002286;28;20071;-80
2024/01/29 12:24:09;;;;;;;10.45;6.95;;;18.30;74.30;;;;;;4988010;28;20511;-80
2024/01/29 12:26:38;;;;;;;6.80;6.10;;;18.30;74.00;;;;;;5019547;28;20099;-80
2024/01/29 12:29:04;;;;;;;8.57;6.03;;;18.30;73.60;;;;;;5018296;28;20887;-80
2024/01/29 12:31:30;;;;;;;6.85;6.05;;;18.30;73.70;;;;;;5019857;28;20043;-80
2024/01/29 12:33:55;;;;;;;6.30;5.32;;;18.40;73.70;;;;;;5021161;28;20438;-80
2024/01/29 12:36:21;;;;;;;5.20;4.70;;;18.30;73.70;;;;;;5017666;28;20655;-80
2024/01/29 12:38:52;;;;;;;5.93;5.43;;;18.30;73.60;;;;;;5019488;28;20033;-80